Sears, Michigan
Current Conditions -  °F | °C
As of 6:55 AM on Monday 22 Dec 2014 (Local Time) from KRQB Reporting Station
Haze Haze  
Wind Chill: 21°   Ceiling: Unl
Heat Index: 28°   Visibility: 5mi
Dew Point: 26°   Wind: 7mph
Humidity: 92%   Direction: 140°SE
Pressure: 30.03"   Gusts: NA
Location:  43.9°N, 85.18°W
Report Text: KRQB 221155Z AUTO 14006KT 5SM BR SCT075 M02/M03 A3003 RMK AO2 T10201031 11015 21020
Loading
Personal Weather Stations






























Interactive Weather Map New forecast layout! Learn more

10-Day Weather Forecast

Advertisements
Track Severe Weather on mobile